Terminal Aerodrome Forecast
Issued by NWS

Home | Current Version | Previous Version | Text Only | Print | Product List | Glossary On
Versions: 1 2 3 4 5 6 7 8 9 10 11 12
004
FTUS44 KSJT 241120
TAFBBD
TAF
KBBD 241120Z 2412/2512 16006KT P6SM SCT020
     FM241215 17006KT P6SM BKN020
     FM241600 18012G19KT P6SM SCT030
     FM241800 18013G21KT P6SM SCT050
     FM250300 14007KT P6SM SKC
      AMD NOT SKED=

USA.gov is the U.S. government's official web portal to all federal, state and local government web resources and services.